sensor_id;sensor_type;location;lat;lon;timestamp;P1;durP1;ratioP1;P2;durP2;ratioP2
20290;SDS011;10304;51.074;13.754;2024-01-07T00:00:38;38.10;;;23.00;;
20290;SDS011;10304;51.074;13.754;2024-01-07T00:03:05;40.00;;;21.00;;
20290;SDS011;10304;51.074;13.754;2024-01-07T00:05:32;33.63;;;21.10;;
20290;SDS011;10304;51.074;13.754;2024-01-07T00:08:00;32.90;;;20.60;;
20290;SDS011;10304;51.074;13.754;2024-01-07T00:10:26;32.80;;;20.05;;
20290;SDS011;10304;51.074;13.754;2024-01-07T00:12:53;31.87;;;20.13;;
20290;SDS011;10304;51.074;13.754;2024-01-07T00:15:20;35.63;;;19.83;;
20290;SDS011;10304;51.074;13.754;2024-01-07T00:17:47;34.73;;;19.83;;
20290;SDS011;10304;51.074;13.754;2024-01-07T00:20:14;30.30;;;18.97;;
20290;SDS011;10304;51.074;13.754;2024-01-07T00:22:40;32.57;;;19.90;;
20290;SDS011;10304;51.074;13.754;2024-01-07T00:25:07;32.60;;;19.50;;
20290;SDS011;10304;51.074;13.754;2024-01-07T00:27:34;33.57;;;19.53;;
20290;SDS011;10304;51.074;13.754;2024-01-07T00:30:01;29.50;;;18.20;;
20290;SDS011;10304;51.074;13.754;2024-01-07T00:32:28;29.17;;;17.97;;
20290;SDS011;10304;51.074;13.754;2024-01-07T00:34:54;34.23;;;19.73;;
20290;SDS011;10304;51.074;13.754;2024-01-07T00:37:21;32.87;;;19.00;;
20290;SDS011;10304;51.074;13.754;2024-01-07T00:39:48;29.37;;;18.57;;
20290;SDS011;10304;51.074;13.754;2024-01-07T00:42:15;32.77;;;19.40;;
20290;SDS011;10304;51.074;13.754;2024-01-07T00:44:42;33.07;;;19.13;;
20290;SDS011;10304;51.074;13.754;2024-01-07T00:47:08;30.00;;;17.80;;
20290;SDS011;10304;51.074;13.754;2024-01-07T00:49:35;34.50;;;19.10;;
20290;SDS011;10304;51.074;13.754;2024-01-07T00:52:02;29.80;;;17.70;;
20290;SDS011;10304;51.074;13.754;2024-01-07T00:54:29;27.07;;;17.03;;
20290;SDS011;10304;51.074;13.754;2024-01-07T00:56:56;30.40;;;18.10;;
20290;SDS011;10304;51.074;13.754;2024-01-07T00:59:22;29.63;;;17.47;;
20290;SDS011;10304;51.074;13.754;2024-01-07T01:01:49;29.60;;;16.67;;
20290;SDS011;10304;51.074;13.754;2024-01-07T01:04:16;29.03;;;16.70;;
20290;SDS011;10304;51.074;13.754;2024-01-07T01:06:43;28.10;;;17.50;;
20290;SDS011;10304;51.074;13.754;2024-01-07T01:09:09;29.40;;;16.97;;
20290;SDS011;10304;51.074;13.754;2024-01-07T01:11:36;29.50;;;16.80;;
20290;SDS011;10304;51.074;13.754;2024-01-07T01:14:03;30.13;;;16.40;;
20290;SDS011;10304;51.074;13.754;2024-01-07T01:16:30;31.23;;;17.07;;
20290;SDS011;10304;51.074;13.754;2024-01-07T01:18:56;29.50;;;17.33;;
20290;SDS011;10304;51.074;13.754;2024-01-07T01:21:23;28.63;;;16.60;;
20290;SDS011;10304;51.074;13.754;2024-01-07T01:23:50;30.07;;;17.43;;
20290;SDS011;10304;51.074;13.754;2024-01-07T01:26:17;31.83;;;17.47;;
20290;SDS011;10304;51.074;13.754;2024-01-07T01:28:43;31.13;;;17.90;;
20290;SDS011;10304;51.074;13.754;2024-01-07T01:31:13;32.60;;;18.10;;
20290;SDS011;10304;51.074;13.754;2024-01-07T01:33:41;30.37;;;17.70;;
20290;SDS011;10304;51.074;13.754;2024-01-07T01:36:08;34.50;;;19.17;;
20290;SDS011;10304;51.074;13.754;2024-01-07T01:38:35;31.53;;;17.87;;
20290;SDS011;10304;51.074;13.754;2024-01-07T01:41:01;34.37;;;18.50;;
20290;SDS011;10304;51.074;13.754;2024-01-07T01:43:28;31.13;;;18.40;;
20290;SDS011;10304;51.074;13.754;2024-01-07T01:45:55;32.80;;;17.50;;
20290;SDS011;10304;51.074;13.754;2024-01-07T01:48:23;29.97;;;17.37;;
20290;SDS011;10304;51.074;13.754;2024-01-07T01:50:50;30.33;;;17.50;;
20290;SDS011;10304;51.074;13.754;2024-01-07T01:53:20;31.40;;;17.43;;
20290;SDS011;10304;51.074;13.754;2024-01-07T01:55:46;34.00;;;17.57;;
20290;SDS011;10304;51.074;13.754;2024-01-07T01:58:13;34.50;;;17.20;;
20290;SDS011;10304;51.074;13.754;2024-01-07T02:00:41;28.03;;;16.43;;
20290;SDS011;10304;51.074;13.754;2024-01-07T02:03:08;32.10;;;18.40;;
20290;SDS011;10304;51.074;13.754;2024-01-07T02:05:35;32.67;;;17.43;;
20290;SDS011;10304;51.074;13.754;2024-01-07T02:08:01;29.20;;;17.17;;
20290;SDS011;10304;51.074;13.754;2024-01-07T02:10:28;26.73;;;15.87;;
20290;SDS011;10304;51.074;13.754;2024-01-07T02:13:00;29.37;;;17.53;;
20290;SDS011;10304;51.074;13.754;2024-01-07T02:15:27;30.83;;;17.20;;
20290;SDS011;10304;51.074;13.754;2024-01-07T02:17:54;28.40;;;17.17;;
20290;SDS011;10304;51.074;13.754;2024-01-07T02:20:20;29.67;;;16.53;;
20290;SDS011;10304;51.074;13.754;2024-01-07T02:22:48;30.93;;;17.57;;
20290;SDS011;10304;51.074;13.754;2024-01-07T02:25:14;33.97;;;17.60;;
20290;SDS011;10304;51.074;13.754;2024-01-07T02:27:41;31.13;;;18.77;;
20290;SDS011;10304;51.074;13.754;2024-01-07T02:30:08;28.60;;;16.73;;
20290;SDS011;10304;51.074;13.754;2024-01-07T02:32:35;30.77;;;17.03;;
20290;SDS011;10304;51.074;13.754;2024-01-07T02:35:04;27.17;;;16.40;;
20290;SDS011;10304;51.074;13.754;2024-01-07T02:37:31;26.27;;;16.30;;
20290;SDS011;10304;51.074;13.754;2024-01-07T02:39:58;30.17;;;16.73;;
20290;SDS011;10304;51.074;13.754;2024-01-07T02:42:27;24.17;;;14.30;;
20290;SDS011;10304;51.074;13.754;2024-01-07T02:44:54;27.40;;;15.00;;
20290;SDS011;10304;51.074;13.754;2024-01-07T02:47:21;28.40;;;16.30;;
20290;SDS011;10304;51.074;13.754;2024-01-07T02:49:47;28.10;;;14.53;;
20290;SDS011;10304;51.074;13.754;2024-01-07T02:52:14;25.20;;;14.67;;
20290;SDS011;10304;51.074;13.754;2024-01-07T02:54:41;25.33;;;13.97;;
20290;SDS011;10304;51.074;13.754;2024-01-07T02:57:07;22.80;;;13.97;;
20290;SDS011;10304;51.074;13.754;2024-01-07T02:59:34;61.87;;;35.73;;
20290;SDS011;10304;51.074;13.754;2024-01-07T03:02:01;40.40;;;23.33;;
20290;SDS011;10304;51.074;13.754;2024-01-07T03:04:28;27.10;;;15.43;;
20290;SDS011;10304;51.074;13.754;2024-01-07T03:06:54;25.20;;;14.90;;
20290;SDS011;10304;51.074;13.754;2024-01-07T03:09:21;23.93;;;13.63;;
20290;SDS011;10304;51.074;13.754;2024-01-07T03:11:48;22.83;;;14.47;;
20290;SDS011;10304;51.074;13.754;2024-01-07T03:14:15;23.47;;;14.37;;
20290;SDS011;10304;51.074;13.754;2024-01-07T03:16:46;22.67;;;14.13;;
20290;SDS011;10304;51.074;13.754;2024-01-07T03:19:13;23.03;;;13.17;;
20290;SDS011;10304;51.074;13.754;2024-01-07T03:21:40;25.13;;;13.70;;
20290;SDS011;10304;51.074;13.754;2024-01-07T03:24:06;22.40;;;13.37;;
20290;SDS011;10304;51.074;13.754;2024-01-07T03:26:33;25.07;;;13.90;;
20290;SDS011;10304;51.074;13.754;2024-01-07T03:29:00;22.23;;;13.63;;
20290;SDS011;10304;51.074;13.754;2024-01-07T03:31:28;21.30;;;12.47;;
20290;SDS011;10304;51.074;13.754;2024-01-07T03:33:55;21.63;;;13.33;;
20290;SDS011;10304;51.074;13.754;2024-01-07T03:36:22;23.70;;;13.37;;
20290;SDS011;10304;51.074;13.754;2024-01-07T03:38:49;24.77;;;13.00;;
20290;SDS011;10304;51.074;13.754;2024-01-07T03:41:16;19.07;;;12.77;;
20290;SDS011;10304;51.074;13.754;2024-01-07T03:43:47;22.63;;;13.07;;
20290;SDS011;10304;51.074;13.754;2024-01-07T03:46:14;21.93;;;13.57;;
20290;SDS011;10304;51.074;13.754;2024-01-07T03:48:42;23.97;;;13.27;;
20290;SDS011;10304;51.074;13.754;2024-01-07T03:51:10;23.20;;;12.67;;
20290;SDS011;10304;51.074;13.754;2024-01-07T03:53:36;22.40;;;13.17;;
20290;SDS011;10304;51.074;13.754;2024-01-07T03:56:03;20.17;;;12.63;;
20290;SDS011;10304;51.074;13.754;2024-01-07T03:58:30;24.33;;;13.30;;
20290;SDS011;10304;51.074;13.754;2024-01-07T04:00:57;24.50;;;14.23;;
20290;SDS011;10304;51.074;13.754;2024-01-07T04:03:24;24.43;;;13.37;;
20290;SDS011;10304;51.074;13.754;2024-01-07T04:05:50;21.10;;;12.37;;
20290;SDS011;10304;51.074;13.754;2024-01-07T04:08:17;22.03;;;12.97;;
20290;SDS011;10304;51.074;13.754;2024-01-07T04:10:44;21.87;;;13.50;;
20290;SDS011;10304;51.074;13.754;2024-01-07T04:13:11;23.37;;;13.23;;
20290;SDS011;10304;51.074;13.754;2024-01-07T04:15:38;22.20;;;13.17;;
20290;SDS011;10304;51.074;13.754;2024-01-07T04:18:04;21.07;;;12.77;;
20290;SDS011;10304;51.074;13.754;2024-01-07T04:20:31;23.63;;;13.67;;
20290;SDS011;10304;51.074;13.754;2024-01-07T04:22:58;22.10;;;13.43;;
20290;SDS011;10304;51.074;13.754;2024-01-07T04:25:25;22.27;;;12.40;;
20290;SDS011;10304;51.074;13.754;2024-01-07T04:27:52;22.17;;;13.23;;
20290;SDS011;10304;51.074;13.754;2024-01-07T04:30:19;22.93;;;12.90;;
20290;SDS011;10304;51.074;13.754;2024-01-07T04:32:45;22.00;;;13.17;;
20290;SDS011;10304;51.074;13.754;2024-01-07T04:35:12;19.80;;;11.30;;
20290;SDS011;10304;51.074;13.754;2024-01-07T04:37:39;19.83;;;12.50;;
20290;SDS011;10304;51.074;13.754;2024-01-07T04:40:06;19.20;;;11.83;;
20290;SDS011;10304;51.074;13.754;2024-01-07T04:42:33;25.23;;;12.60;;
20290;SDS011;10304;51.074;13.754;2024-01-07T04:45:00;22.80;;;12.23;;
20290;SDS011;10304;51.074;13.754;2024-01-07T04:47:31;21.07;;;11.93;;
20290;SDS011;10304;51.074;13.754;2024-01-07T04:50:02;19.67;;;12.23;;
20290;SDS011;10304;51.074;13.754;2024-01-07T04:52:29;20.30;;;11.87;;
20290;SDS011;10304;51.074;13.754;2024-01-07T04:54:56;20.63;;;11.53;;
20290;SDS011;10304;51.074;13.754;2024-01-07T04:57:23;18.77;;;11.53;;
20290;SDS011;10304;51.074;13.754;2024-01-07T04:59:50;20.87;;;12.30;;
20290;SDS011;10304;51.074;13.754;2024-01-07T05:02:18;23.00;;;12.30;;
20290;SDS011;10304;51.074;13.754;2024-01-07T05:04:45;20.13;;;11.83;;
20290;SDS011;10304;51.074;13.754;2024-01-07T05:07:12;17.33;;;10.63;;
20290;SDS011;10304;51.074;13.754;2024-01-07T05:09:39;20.57;;;11.17;;
20290;SDS011;10304;51.074;13.754;2024-01-07T05:12:06;19.47;;;11.33;;
20290;SDS011;10304;51.074;13.754;2024-01-07T05:14:32;16.33;;;11.00;;
20290;SDS011;10304;51.074;13.754;2024-01-07T05:16:59;20.17;;;11.63;;
20290;SDS011;10304;51.074;13.754;2024-01-07T05:19:26;16.77;;;10.33;;
20290;SDS011;10304;51.074;13.754;2024-01-07T05:21:53;18.87;;;11.33;;
20290;SDS011;10304;51.074;13.754;2024-01-07T05:24:20;17.90;;;10.97;;
20290;SDS011;10304;51.074;13.754;2024-01-07T05:26:47;18.43;;;10.70;;
20290;SDS011;10304;51.074;13.754;2024-01-07T05:29:14;21.77;;;12.90;;
20290;SDS011;10304;51.074;13.754;2024-01-07T05:31:40;19.67;;;11.43;;
20290;SDS011;10304;51.074;13.754;2024-01-07T05:34:07;20.53;;;12.70;;
20290;SDS011;10304;51.074;13.754;2024-01-07T05:36:35;18.93;;;10.17;;
20290;SDS011;10304;51.074;13.754;2024-01-07T05:39:01;18.50;;;10.40;;
20290;SDS011;10304;51.074;13.754;2024-01-07T05:41:29;16.93;;;9.77;;
20290;SDS011;10304;51.074;13.754;2024-01-07T05:43:55;15.73;;;9.57;;
20290;SDS011;10304;51.074;13.754;2024-01-07T05:46:22;17.83;;;9.80;;
20290;SDS011;10304;51.074;13.754;2024-01-07T05:48:49;17.83;;;9.93;;
20290;SDS011;10304;51.074;13.754;2024-01-07T05:51:16;16.27;;;10.03;;
20290;SDS011;10304;51.074;13.754;2024-01-07T05:53:44;14.10;;;9.63;;
20290;SDS011;10304;51.074;13.754;2024-01-07T05:56:11;16.07;;;9.60;;
20290;SDS011;10304;51.074;13.754;2024-01-07T05:58:38;14.97;;;8.90;;
20290;SDS011;10304;51.074;13.754;2024-01-07T06:01:06;14.80;;;9.23;;
20290;SDS011;10304;51.074;13.754;2024-01-07T06:03:34;15.03;;;9.40;;
20290;SDS011;10304;51.074;13.754;2024-01-07T06:06:02;13.37;;;9.00;;
20290;SDS011;10304;51.074;13.754;2024-01-07T06:08:29;12.83;;;7.97;;
20290;SDS011;10304;51.074;13.754;2024-01-07T06:10:55;13.77;;;8.60;;
20290;SDS011;10304;51.074;13.754;2024-01-07T06:13:22;17.03;;;10.03;;
20290;SDS011;10304;51.074;13.754;2024-01-07T06:15:49;21.90;;;12.33;;
20290;SDS011;10304;51.074;13.754;2024-01-07T06:18:16;17.10;;;9.60;;
20290;SDS011;10304;51.074;13.754;2024-01-07T06:20:43;19.37;;;8.90;;
20290;SDS011;10304;51.074;13.754;2024-01-07T06:23:10;12.17;;;7.50;;
20290;SDS011;10304;51.074;13.754;2024-01-07T06:25:37;13.50;;;7.60;;
20290;SDS011;10304;51.074;13.754;2024-01-07T06:28:05;13.50;;;7.50;;
20290;SDS011;10304;51.074;13.754;2024-01-07T06:30:32;13.47;;;7.77;;
20290;SDS011;10304;51.074;13.754;2024-01-07T06:33:00;11.27;;;6.63;;
20290;SDS011;10304;51.074;13.754;2024-01-07T06:35:27;10.33;;;6.93;;
20290;SDS011;10304;51.074;13.754;2024-01-07T06:37:54;13.27;;;7.97;;
20290;SDS011;10304;51.074;13.754;2024-01-07T06:40:21;12.73;;;7.07;;
20290;SDS011;10304;51.074;13.754;2024-01-07T06:42:49;14.13;;;7.53;;
20290;SDS011;10304;51.074;13.754;2024-01-07T06:45:16;11.17;;;6.70;;
20290;SDS011;10304;51.074;13.754;2024-01-07T06:47:43;13.60;;;7.17;;
20290;SDS011;10304;51.074;13.754;2024-01-07T06:50:10;9.37;;;6.50;;
20290;SDS011;10304;51.074;13.754;2024-01-07T06:52:37;11.50;;;6.80;;
20290;SDS011;10304;51.074;13.754;2024-01-07T06:55:04;10.30;;;6.50;;
20290;SDS011;10304;51.074;13.754;2024-01-07T06:57:31;10.93;;;6.63;;
20290;SDS011;10304;51.074;13.754;2024-01-07T06:59:58;9.97;;;6.03;;
20290;SDS011;10304;51.074;13.754;2024-01-07T07:02:25;12.23;;;6.57;;
20290;SDS011;10304;51.074;13.754;2024-01-07T07:04:51;9.83;;;5.73;;
20290;SDS011;10304;51.074;13.754;2024-01-07T07:07:18;8.83;;;5.47;;
20290;SDS011;10304;51.074;13.754;2024-01-07T07:09:45;8.30;;;5.33;;
20290;SDS011;10304;51.074;13.754;2024-01-07T07:12:12;8.30;;;5.37;;
20290;SDS011;10304;51.074;13.754;2024-01-07T07:14:39;12.67;;;7.17;;
20290;SDS011;10304;51.074;13.754;2024-01-07T07:17:06;10.20;;;6.40;;
20290;SDS011;10304;51.074;13.754;2024-01-07T07:19:33;9.23;;;5.60;;
20290;SDS011;10304;51.074;13.754;2024-01-07T07:22:00;9.37;;;5.27;;
20290;SDS011;10304;51.074;13.754;2024-01-07T07:24:26;10.00;;;5.03;;
20290;SDS011;10304;51.074;13.754;2024-01-07T07:26:53;10.27;;;6.13;;
20290;SDS011;10304;51.074;13.754;2024-01-07T07:29:20;10.67;;;6.37;;
20290;SDS011;10304;51.074;13.754;2024-01-07T07:31:47;8.00;;;5.17;;
20290;SDS011;10304;51.074;13.754;2024-01-07T07:34:14;8.27;;;5.13;;
20290;SDS011;10304;51.074;13.754;2024-01-07T07:36:41;7.83;;;4.60;;
20290;SDS011;10304;51.074;13.754;2024-01-07T07:39:09;21.80;;;11.20;;
20290;SDS011;10304;51.074;13.754;2024-01-07T07:41:36;98.33;;;36.07;;
20290;SDS011;10304;51.074;13.754;2024-01-07T07:44:03;12.37;;;7.43;;
20290;SDS011;10304;51.074;13.754;2024-01-07T07:46:30;7.83;;;5.03;;
20290;SDS011;10304;51.074;13.754;2024-01-07T07:48:56;6.93;;;4.63;;
20290;SDS011;10304;51.074;13.754;2024-01-07T07:51:23;7.27;;;4.73;;
20290;SDS011;10304;51.074;13.754;2024-01-07T07:53:50;6.50;;;4.70;;
20290;SDS011;10304;51.074;13.754;2024-01-07T07:56:17;9.63;;;4.97;;
20290;SDS011;10304;51.074;13.754;2024-01-07T07:58:43;8.20;;;4.70;;
20290;SDS011;10304;51.074;13.754;2024-01-07T08:01:10;9.77;;;4.83;;
20290;SDS011;10304;51.074;13.754;2024-01-07T08:03:37;6.77;;;4.20;;
20290;SDS011;10304;51.074;13.754;2024-01-07T08:06:04;8.60;;;4.67;;
20290;SDS011;10304;51.074;13.754;2024-01-07T08:08:34;7.53;;;4.57;;
20290;SDS011;10304;51.074;13.754;2024-01-07T08:11:01;6.00;;;4.07;;
20290;SDS011;10304;51.074;13.754;2024-01-07T08:13:27;9.07;;;4.73;;
20290;SDS011;10304;51.074;13.754;2024-01-07T08:15:54;7.13;;;4.27;;
20290;SDS011;10304;51.074;13.754;2024-01-07T08:18:21;6.77;;;4.13;;
20290;SDS011;10304;51.074;13.754;2024-01-07T08:20:48;5.57;;;3.70;;
20290;SDS011;10304;51.074;13.754;2024-01-07T08:23:15;7.13;;;3.80;;
20290;SDS011;10304;51.074;13.754;2024-01-07T08:25:42;5.77;;;3.53;;
20290;SDS011;10304;51.074;13.754;2024-01-07T08:28:09;7.40;;;3.87;;
20290;SDS011;10304;51.074;13.754;2024-01-07T08:30:36;5.70;;;3.80;;
20290;SDS011;10304;51.074;13.754;2024-01-07T08:33:03;6.77;;;3.47;;
20290;SDS011;10304;51.074;13.754;2024-01-07T08:35:30;10.30;;;5.20;;
20290;SDS011;10304;51.074;13.754;2024-01-07T08:37:58;5.97;;;3.70;;
20290;SDS011;10304;51.074;13.754;2024-01-07T08:40:24;7.03;;;4.13;;
20290;SDS011;10304;51.074;13.754;2024-01-07T08:42:51;5.83;;;3.77;;
20290;SDS011;10304;51.074;13.754;2024-01-07T08:45:18;6.87;;;3.50;;
20290;SDS011;10304;51.074;13.754;2024-01-07T08:47:45;7.80;;;3.80;;
20290;SDS011;10304;51.074;13.754;2024-01-07T08:50:12;6.47;;;3.50;;
20290;SDS011;10304;51.074;13.754;2024-01-07T08:52:39;88.47;;;35.10;;
20290;SDS011;10304;51.074;13.754;2024-01-07T08:55:06;18.53;;;8.53;;
20290;SDS011;10304;51.074;13.754;2024-01-07T08:57:36;67.70;;;27.20;;
20290;SDS011;10304;51.074;13.754;2024-01-07T09:00:05;10.00;;;5.87;;
20290;SDS011;10304;51.074;13.754;2024-01-07T09:02:34;7.07;;;3.73;;
20290;SDS011;10304;51.074;13.754;2024-01-07T09:05:06;5.97;;;3.80;;
20290;SDS011;10304;51.074;13.754;2024-01-07T09:07:33;6.00;;;3.20;;
20290;SDS011;10304;51.074;13.754;2024-01-07T09:09:59;8.17;;;4.17;;
20290;SDS011;10304;51.074;13.754;2024-01-07T09:12:27;7.37;;;3.73;;
20290;SDS011;10304;51.074;13.754;2024-01-07T09:14:53;4.27;;;3.13;;
20290;SDS011;10304;51.074;13.754;2024-01-07T09:17:20;22.00;;;9.33;;
20290;SDS011;10304;51.074;13.754;2024-01-07T09:19:47;6.67;;;4.03;;
20290;SDS011;10304;51.074;13.754;2024-01-07T09:22:14;5.93;;;3.80;;
20290;SDS011;10304;51.074;13.754;2024-01-07T09:24:41;5.17;;;3.20;;
20290;SDS011;10304;51.074;13.754;2024-01-07T09:27:08;5.87;;;3.70;;
20290;SDS011;10304;51.074;13.754;2024-01-07T09:29:34;5.97;;;3.40;;
20290;SDS011;10304;51.074;13.754;2024-01-07T09:32:01;6.03;;;3.37;;
20290;SDS011;10304;51.074;13.754;2024-01-07T09:34:28;6.13;;;3.53;;
20290;SDS011;10304;51.074;13.754;2024-01-07T09:36:55;4.67;;;3.27;;
20290;SDS011;10304;51.074;13.754;2024-01-07T09:39:21;6.63;;;3.40;;
20290;SDS011;10304;51.074;13.754;2024-01-07T09:41:48;5.60;;;3.60;;
20290;SDS011;10304;51.074;13.754;2024-01-07T09:44:15;5.00;;;3.33;;
20290;SDS011;10304;51.074;13.754;2024-01-07T09:46:43;5.67;;;3.37;;
20290;SDS011;10304;51.074;13.754;2024-01-07T09:49:15;5.77;;;3.60;;
20290;SDS011;10304;51.074;13.754;2024-01-07T09:51:42;5.03;;;3.40;;
20290;SDS011;10304;51.074;13.754;2024-01-07T09:54:11;6.23;;;3.57;;
20290;SDS011;10304;51.074;13.754;2024-01-07T09:56:46;7.20;;;3.37;;
20290;SDS011;10304;51.074;13.754;2024-01-07T09:59:19;5.60;;;3.80;;
20290;SDS011;10304;51.074;13.754;2024-01-07T10:01:46;7.77;;;4.43;;
20290;SDS011;10304;51.074;13.754;2024-01-07T10:04:15;4.77;;;3.17;;
20290;SDS011;10304;51.074;13.754;2024-01-07T10:06:42;6.63;;;3.60;;
20290;SDS011;10304;51.074;13.754;2024-01-07T10:09:11;5.10;;;3.60;;
20290;SDS011;10304;51.074;13.754;2024-01-07T10:11:38;5.57;;;4.20;;
20290;SDS011;10304;51.074;13.754;2024-01-07T10:14:05;6.23;;;3.63;;
20290;SDS011;10304;51.074;13.754;2024-01-07T10:16:32;5.03;;;3.37;;
20290;SDS011;10304;51.074;13.754;2024-01-07T10:18:59;6.20;;;3.23;;
20290;SDS011;10304;51.074;13.754;2024-01-07T10:21:26;4.70;;;3.10;;
20290;SDS011;10304;51.074;13.754;2024-01-07T10:24:11;5.17;;;3.43;;
20290;SDS011;10304;51.074;13.754;2024-01-07T10:26:40;7.07;;;3.50;;
20290;SDS011;10304;51.074;13.754;2024-01-07T10:29:07;4.70;;;3.10;;
20290;SDS011;10304;51.074;13.754;2024-01-07T10:31:37;4.77;;;2.63;;
20290;SDS011;10304;51.074;13.754;2024-01-07T10:34:09;4.93;;;3.23;;
20290;SDS011;10304;51.074;13.754;2024-01-07T10:36:36;9.87;;;3.50;;
20290;SDS011;10304;51.074;13.754;2024-01-07T10:39:04;5.27;;;3.00;;
20290;SDS011;10304;51.074;13.754;2024-01-07T10:41:31;5.30;;;2.97;;
20290;SDS011;10304;51.074;13.754;2024-01-07T10:44:02;5.50;;;3.03;;
20290;SDS011;10304;51.074;13.754;2024-01-07T10:46:29;4.63;;;2.97;;
20290;SDS011;10304;51.074;13.754;2024-01-07T10:49:02;4.53;;;2.90;;
20290;SDS011;10304;51.074;13.754;2024-01-07T10:51:33;5.57;;;3.30;;
20290;SDS011;10304;51.074;13.754;2024-01-07T10:54:01;6.07;;;3.50;;
20290;SDS011;10304;51.074;13.754;2024-01-07T10:56:32;4.97;;;2.87;;
20290;SDS011;10304;51.074;13.754;2024-01-07T10:59:04;4.67;;;2.83;;
20290;SDS011;10304;51.074;13.754;2024-01-07T11:01:31;4.63;;;3.13;;
20290;SDS011;10304;51.074;13.754;2024-01-07T11:04:01;5.77;;;3.30;;
20290;SDS011;10304;51.074;13.754;2024-01-07T11:06:42;4.50;;;3.37;;
20290;SDS011;10304;51.074;13.754;2024-01-07T11:09:35;7.63;;;3.90;;
20290;SDS011;10304;51.074;13.754;2024-01-07T11:12:05;4.80;;;2.80;;
20290;SDS011;10304;51.074;13.754;2024-01-07T11:14:33;4.33;;;2.90;;
20290;SDS011;10304;51.074;13.754;2024-01-07T11:17:03;41.53;;;19.13;;
20290;SDS011;10304;51.074;13.754;2024-01-07T11:19:30;20.07;;;9.33;;
20290;SDS011;10304;51.074;13.754;2024-01-07T11:24:53;28.97;;;12.13;;
20290;SDS011;10304;51.074;13.754;2024-01-07T11:27:22;9.90;;;5.20;;
20290;SDS011;10304;51.074;13.754;2024-01-07T11:29:54;18.57;;;7.33;;
20290;SDS011;10304;51.074;13.754;2024-01-07T11:32:23;5.83;;;2.87;;
20290;SDS011;10304;51.074;13.754;2024-01-07T11:34:51;7.97;;;4.00;;
20290;SDS011;10304;51.074;13.754;2024-01-07T11:37:20;5.03;;;3.00;;
20290;SDS011;10304;51.074;13.754;2024-01-07T11:39:48;4.13;;;2.50;;
20290;SDS011;10304;51.074;13.754;2024-01-07T11:42:16;2.47;;;2.03;;
20290;SDS011;10304;51.074;13.754;2024-01-07T11:44:53;5.63;;;2.50;;
20290;SDS011;10304;51.074;13.754;2024-01-07T11:47:22;3.10;;;2.40;;
20290;SDS011;10304;51.074;13.754;2024-01-07T11:49:51;3.77;;;2.57;;
20290;SDS011;10304;51.074;13.754;2024-01-07T11:52:18;5.23;;;3.23;;
20290;SDS011;10304;51.074;13.754;2024-01-07T11:54:49;3.73;;;2.50;;
20290;SDS011;10304;51.074;13.754;2024-01-07T11:57:16;3.73;;;2.70;;
20290;SDS011;10304;51.074;13.754;2024-01-07T11:59:43;6.50;;;2.87;;
20290;SDS011;10304;51.074;13.754;2024-01-07T12:02:10;6.63;;;4.27;;
20290;SDS011;10304;51.074;13.754;2024-01-07T12:04:38;5.97;;;3.70;;
20290;SDS011;10304;51.074;13.754;2024-01-07T12:07:05;4.83;;;2.87;;
20290;SDS011;10304;51.074;13.754;2024-01-07T12:09:32;3.60;;;2.70;;
20290;SDS011;10304;51.074;13.754;2024-01-07T12:11:59;4.30;;;2.87;;
20290;SDS011;10304;51.074;13.754;2024-01-07T12:14:27;4.30;;;3.10;;
20290;SDS011;10304;51.074;13.754;2024-01-07T12:16:54;4.17;;;2.70;;
20290;SDS011;10304;51.074;13.754;2024-01-07T12:19:21;3.97;;;2.60;;
20290;SDS011;10304;51.074;13.754;2024-01-07T12:22:00;5.37;;;3.43;;
20290;SDS011;10304;51.074;13.754;2024-01-07T12:24:32;71.80;;;35.23;;
20290;SDS011;10304;51.074;13.754;2024-01-07T12:27:05;12.93;;;6.97;;
20290;SDS011;10304;51.074;13.754;2024-01-07T12:29:33;27.37;;;12.33;;
20290;SDS011;10304;51.074;13.754;2024-01-07T12:32:00;25.70;;;11.53;;
20290;SDS011;10304;51.074;13.754;2024-01-07T12:34:29;43.23;;;17.60;;
20290;SDS011;10304;51.074;13.754;2024-01-07T12:36:57;17.57;;;7.50;;
20290;SDS011;10304;51.074;13.754;2024-01-07T12:39:26;30.53;;;11.90;;
20290;SDS011;10304;51.074;13.754;2024-01-07T12:41:54;6.87;;;3.13;;
20290;SDS011;10304;51.074;13.754;2024-01-07T12:44:21;5.70;;;2.70;;
20290;SDS011;10304;51.074;13.754;2024-01-07T12:46:47;3.67;;;2.10;;
20290;SDS011;10304;51.074;13.754;2024-01-07T12:49:18;3.13;;;2.00;;
20290;SDS011;10304;51.074;13.754;2024-01-07T12:51:44;3.97;;;2.30;;
20290;SDS011;10304;51.074;13.754;2024-01-07T12:54:11;3.30;;;2.53;;
20290;SDS011;10304;51.074;13.754;2024-01-07T12:56:38;2.90;;;2.17;;
20290;SDS011;10304;51.074;13.754;2024-01-07T12:59:05;3.00;;;2.33;;
20290;SDS011;10304;51.074;13.754;2024-01-07T13:01:31;4.50;;;2.57;;
20290;SDS011;10304;51.074;13.754;2024-01-07T13:03:58;4.70;;;2.80;;
20290;SDS011;10304;51.074;13.754;2024-01-07T13:06:25;3.83;;;2.60;;
20290;SDS011;10304;51.074;13.754;2024-01-07T13:08:52;3.07;;;2.30;;
20290;SDS011;10304;51.074;13.754;2024-01-07T13:11:20;2.80;;;2.10;;
20290;SDS011;10304;51.074;13.754;2024-01-07T13:13:48;3.93;;;2.40;;
20290;SDS011;10304;51.074;13.754;2024-01-07T13:16:15;2.63;;;1.63;;
20290;SDS011;10304;51.074;13.754;2024-01-07T13:18:41;3.20;;;2.03;;
20290;SDS011;10304;51.074;13.754;2024-01-07T13:21:08;4.17;;;2.27;;
20290;SDS011;10304;51.074;13.754;2024-01-07T13:23:35;3.47;;;2.53;;
20290;SDS011;10304;51.074;13.754;2024-01-07T13:26:02;4.47;;;2.43;;
20290;SDS011;10304;51.074;13.754;2024-01-07T13:28:32;3.07;;;2.17;;
20290;SDS011;10304;51.074;13.754;2024-01-07T13:30:59;3.27;;;2.47;;
20290;SDS011;10304;51.074;13.754;2024-01-07T13:33:26;4.63;;;2.83;;
20290;SDS011;10304;51.074;13.754;2024-01-07T13:35:53;5.03;;;2.73;;
20290;SDS011;10304;51.074;13.754;2024-01-07T13:38:20;5.47;;;2.53;;
20290;SDS011;10304;51.074;13.754;2024-01-07T13:40:47;2.83;;;2.20;;
20290;SDS011;10304;51.074;13.754;2024-01-07T13:43:14;4.20;;;2.20;;
20290;SDS011;10304;51.074;13.754;2024-01-07T13:45:42;3.67;;;2.20;;
20290;SDS011;10304;51.074;13.754;2024-01-07T13:48:09;2.97;;;1.93;;
20290;SDS011;10304;51.074;13.754;2024-01-07T13:50:36;3.13;;;2.05;;
20290;SDS011;10304;51.074;13.754;2024-01-07T13:53:03;4.45;;;2.30;;
20290;SDS011;10304;51.074;13.754;2024-01-07T13:55:29;2.45;;;1.98;;
20290;SDS011;10304;51.074;13.754;2024-01-07T13:57:56;3.95;;;2.53;;
20290;SDS011;10304;51.074;13.754;2024-01-07T14:00:23;12.95;;;7.65;;
20290;SDS011;10304;51.074;13.754;2024-01-07T14:02:50;6.30;;;3.95;;
20290;SDS011;10304;51.074;13.754;2024-01-07T14:05:16;3.92;;;2.80;;
20290;SDS011;10304;51.074;13.754;2024-01-07T14:07:46;3.88;;;2.33;;
20290;SDS011;10304;51.074;13.754;2024-01-07T14:10:12;2.90;;;2.20;;
20290;SDS011;10304;51.074;13.754;2024-01-07T14:12:41;5.03;;;2.33;;
20290;SDS011;10304;51.074;13.754;2024-01-07T14:15:08;4.60;;;2.10;;
20290;SDS011;10304;51.074;13.754;2024-01-07T14:17:35;2.93;;;2.03;;
20290;SDS011;10304;51.074;13.754;2024-01-07T14:20:02;2.77;;;2.17;;
20290;SDS011;10304;51.074;13.754;2024-01-07T14:22:30;3.47;;;2.40;;
20290;SDS011;10304;51.074;13.754;2024-01-07T14:24:56;2.83;;;2.00;;